Estación de Yerbas Buenas

Ultimos registro cada 15 minutos 95
Estación Fecha / Hora Temperatura Humedad Lluvia Velocidad Dirección Radiación Presion
95 Yerbas Buenas 02-05-2026 23:30 3,4 92,8 0 0 232 0,6 1000,5
94 Yerbas Buenas 02-05-2026 23:15 3,7 92,8 0 0 232 0,6 1000,7
93 Yerbas Buenas 02-05-2026 23:00 4 92,8 0 0 232 0,6 1000,9
92 Yerbas Buenas 02-05-2026 22:45 3,8 92,7 0 0 232 0,6 1000,9
91 Yerbas Buenas 02-05-2026 22:30 4 92,6 0 0 232 0,6 1000,9
90 Yerbas Buenas 02-05-2026 22:15 4,2 92,4 0 0 232 0,6 1000,9
89 Yerbas Buenas 02-05-2026 22:00 4,8 92,3 0 0 232 0,6 1000,8
88 Yerbas Buenas 02-05-2026 21:45 5,5 92,3 0 0 232 0,6 1000,7
87 Yerbas Buenas 02-05-2026 21:30 5,2 92,1 0 0 232 0,6 1000,8
86 Yerbas Buenas 02-05-2026 21:15 5,1 91,9 0 0 233 0,6 1000,7
85 Yerbas Buenas 02-05-2026 21:00 6 92 0 0 233 0,6 1000,6
84 Yerbas Buenas 02-05-2026 20:45 5,9 91,9 0 0 233 0,6 1000,8
83 Yerbas Buenas 02-05-2026 20:30 5,6 91,1 0 0 233 0,6 1000,8
82 Yerbas Buenas 02-05-2026 20:15 6,1 91 0 0 233 0,6 1000,8
81 Yerbas Buenas 02-05-2026 20:00 6,7 91,2 0 0 233 0,6 1000,8
80 Yerbas Buenas 02-05-2026 19:45 6,9 90,1 0 0 233 0,6 1000,5
79 Yerbas Buenas 02-05-2026 19:30 7,4 89,7 0 0 233 0,6 1000,4
78 Yerbas Buenas 02-05-2026 19:15 7,8 89,3 0 0 233 0,6 1000,4
77 Yerbas Buenas 02-05-2026 19:00 8 88,4 0 0 233 0,6 1000,3
76 Yerbas Buenas 02-05-2026 18:45 8,3 87 0 0 233 0,6 999,9
75 Yerbas Buenas 02-05-2026 18:30 9,1 86,4 0 0 233 0,6 999,7
74 Yerbas Buenas 02-05-2026 18:15 10,1 83,9 0 0 233 0,6 999,3
73 Yerbas Buenas 02-05-2026 18:00 11,2 79,9 0 0 233 3,1 998,9
72 Yerbas Buenas 02-05-2026 17:45 12,7 74,6 0 0 233 11,9 998,7
71 Yerbas Buenas 02-05-2026 17:30 14,3 68,5 0 0 233 18,1 998,4
70 Yerbas Buenas 02-05-2026 17:15 15,6 60,1 0 0 233 24,4 998,6
69 Yerbas Buenas 02-05-2026 17:00 18,1 52 0 0 236 30,6 998,6
68 Yerbas Buenas 02-05-2026 16:45 19,6 49,2 0 0 241 106,9 998,7
67 Yerbas Buenas 02-05-2026 16:30 18,8 49,6 0 0 246 145,6 998,7
66 Yerbas Buenas 02-05-2026 16:15 20 48,3 0 0 246 276,9 998,8
65 Yerbas Buenas 02-05-2026 16:00 19,7 47 0 0 157 111,9 998,8
64 Yerbas Buenas 02-05-2026 15:45 19,5 49,5 0 0 285 360,6 998,9
63 Yerbas Buenas 02-05-2026 15:30 19,2 49,3 0 0 175 398,1 998,9
62 Yerbas Buenas 02-05-2026 15:15 19,4 53,4 0 0 132 431,9 999
61 Yerbas Buenas 02-05-2026 15:00 17,9 53,5 0 0 152 463,1 999,2
60 Yerbas Buenas 02-05-2026 14:45 17,5 55,7 0 0 248 489,4 999,1
59 Yerbas Buenas 02-05-2026 14:30 17,1 55,2 0 0 133 519,4 999,1
58 Yerbas Buenas 02-05-2026 14:15 16,4 58,6 0 0 117 539,4 999,5
57 Yerbas Buenas 02-05-2026 14:00 15,8 60,5 0 0 149 559,4 999,2
56 Yerbas Buenas 02-05-2026 13:45 15,3 64,3 0 0 136 573,1 999,3
55 Yerbas Buenas 02-05-2026 13:30 14,5 62,5 0 0 220 588,1 999,7
54 Yerbas Buenas 02-05-2026 13:15 14,3 63,9 0 0 174 598,1 999,9
53 Yerbas Buenas 02-05-2026 13:00 12,9 66,7 0 0 147 600,6 1000,1
52 Yerbas Buenas 02-05-2026 12:45 12,9 67 0 0 211 605,6 1000,2
51 Yerbas Buenas 02-05-2026 12:30 12,4 65,5 0 0 51 604,4 1000,5
50 Yerbas Buenas 02-05-2026 12:15 11,1 70 0 0,5 108 594,4 1000,8
49 Yerbas Buenas 02-05-2026 12:00 10,9 69,5 0 0 122 585,6 1000,9
48 Yerbas Buenas 02-05-2026 11:45 10,3 71,5 0 0 138 580,6 1001,1
47 Yerbas Buenas 02-05-2026 11:30 11,2 69,5 0 0 174 565,6 1001,3
46 Yerbas Buenas 02-05-2026 11:15 10,3 69 0 0 260 545,6 1001,6
45 Yerbas Buenas 02-05-2026 11:00 9,1 73,7 0 0 236 525,6 1001,8
44 Yerbas Buenas 02-05-2026 10:45 8,3 76,2 0 0 265 400,6 1001,9
43 Yerbas Buenas 02-05-2026 10:30 8,6 77,8 0 0 215 656,9 1001,8
42 Yerbas Buenas 02-05-2026 10:15 6,2 85,9 0 0 205 415,6 1002
41 Yerbas Buenas 02-05-2026 10:00 5,8 89,6 0 0 241 275,6 1002,3
40 Yerbas Buenas 02-05-2026 09:45 4,5 90,4 0 0 251 65,6 1002,6
39 Yerbas Buenas 02-05-2026 09:30 4,4 90,7 0 0 258 105,6 1002,6
38 Yerbas Buenas 02-05-2026 09:15 4,2 92,1 0 0 251 84,4 1002,7
37 Yerbas Buenas 02-05-2026 09:00 4,1 92,5 0 0 272 63,1 1002,5
36 Yerbas Buenas 02-05-2026 08:45 4,2 92,7 0 0 274 41,9 1002,5
35 Yerbas Buenas 02-05-2026 08:30 4,2 92,6 0 0 225 38,1 1002,5
34 Yerbas Buenas 02-05-2026 08:15 4,1 92,2 0 0 213 26,9 1002,2
33 Yerbas Buenas 02-05-2026 08:00 4,1 92,1 0 0 241 20,6 1002,3
32 Yerbas Buenas 02-05-2026 07:45 4,2 92,2 0 0 248 9,4 1002,3
31 Yerbas Buenas 02-05-2026 07:30 4 92,1 0 0 263 1,9 1002,3
30 Yerbas Buenas 02-05-2026 07:15 4,1 92 0 0 268 0,6 1002,4
29 Yerbas Buenas 02-05-2026 07:00 4 92,2 0 0 264 0,6 1002,4
28 Yerbas Buenas 02-05-2026 06:45 4 92,6 0 0 253 0,6 1002,3
27 Yerbas Buenas 02-05-2026 06:30 3,9 92,8 0 0 260 0,6 1002,3
26 Yerbas Buenas 02-05-2026 06:15 3,9 93 0 0 261 0,6 1002,1
25 Yerbas Buenas 02-05-2026 06:00 3,6 92,9 0 0 272 0,6 1002,2
24 Yerbas Buenas 02-05-2026 05:45 2,9 92,5 0 0 272 0,6 1002,3
23 Yerbas Buenas 02-05-2026 05:30 3,3 92,4 0 0 272 0,6 1002,4
22 Yerbas Buenas 02-05-2026 05:15 3,6 92,5 0 0 272 0,6 1002,4
21 Yerbas Buenas 02-05-2026 05:00 3,5 92,3 0 0 272 0,6 1002,8
20 Yerbas Buenas 02-05-2026 04:45 3,7 91,9 0 0 272 0,6 1002,9
19 Yerbas Buenas 02-05-2026 04:30 4,1 91,9 0 0 272 0,6 1003,1
18 Yerbas Buenas 02-05-2026 04:15 4,2 91,8 0 0 272 0,6 1003,2
17 Yerbas Buenas 02-05-2026 04:00 4,3 92 0 0 272 0,6 1003,5
16 Yerbas Buenas 02-05-2026 03:45 4,3 91,5 0 0 272 0,6 1003,8
15 Yerbas Buenas 02-05-2026 03:30 4,5 90,9 0 0 272 0,6 1003,9
14 Yerbas Buenas 02-05-2026 03:15 4,8 90,8 0 0 272 0,6 1004
13 Yerbas Buenas 02-05-2026 03:00 5,1 90,5 0 0 272 0,6 1004,2
12 Yerbas Buenas 02-05-2026 02:45 5,2 90 0 0 272 0,6 1004,2
11 Yerbas Buenas 02-05-2026 02:30 5,5 89,6 0 0 272 0,6 1004,4
10 Yerbas Buenas 02-05-2026 02:15 5,8 89,3 0 0 272 0,6 1004,6
9 Yerbas Buenas 02-05-2026 02:00 6,1 89,2 0 0 272 0,6 1004,7
8 Yerbas Buenas 02-05-2026 01:45 6,2 89 0 0 271 0,6 1004,7
7 Yerbas Buenas 02-05-2026 01:30 6,2 89,8 0 0 264 0,6 1004,9
6 Yerbas Buenas 02-05-2026 01:15 6,4 89,8 0 0 258 0,6 1004,9
5 Yerbas Buenas 02-05-2026 01:00 6,7 90,2 0 0 261 0,6 1005
4 Yerbas Buenas 02-05-2026 00:45 6,6 90,3 0 0 265 0,6 1005,4
3 Yerbas Buenas 02-05-2026 00:30 6,8 90,5 0 0 265 0,6 1005,2
2 Yerbas Buenas 02-05-2026 00:15 7 89,4 0 0 265 0,6 1005,4
1 Yerbas Buenas 02-05-2026 00:00 7,3 90,2 0 0 265 0,6 1005,7